Portavogie, United Kingdom
Current Conditions -  °F | °C
As of 9:50 AM on Tuesday 21 Oct 2014 (Local Time) from EGAC Reporting Station
Rain Showers Rain Showers  
Wind Chill:   Ceiling: Unl
Heat Index:   Visibility: 6mi
Dew Point:   Wind: 23mph
Humidity: 76%   Direction: 280°W
Pressure: 29.59"   Gusts: 35mph
Location:  54.46°N, 5.44°W
Report Text: EGAC 210850Z 28020G30KT 9999 VCSH FEW022 SCT038 09/05 Q1002
Loading
Personal Weather Stations






























Interactive Weather Map
Tropical Storm Tracking
New forecast layout! Learn more

10-Day Weather Forecast

Advertisements
Track Severe Weather on mobile